sensor_id;sensor_type;location;lat;lon;timestamp;pressure;altitude;pressure_sealevel;temperature;humidity
55932;BME280;41837;55.700;37.984;2023-02-18T00:00:19;100286.19;;;-14.53;100.00
55932;BME280;41837;55.700;37.984;2023-02-18T00:02:46;100288.63;;;-14.41;100.00
55932;BME280;41837;55.700;37.984;2023-02-18T00:05:13;100291.66;;;-14.34;100.00
55932;BME280;41837;55.700;37.984;2023-02-18T00:07:39;100296.75;;;-14.32;100.00
55932;BME280;41837;55.700;37.984;2023-02-18T00:10:08;100287.72;;;-14.30;100.00
55932;BME280;41837;55.700;37.984;2023-02-18T00:12:34;100275.31;;;-14.40;100.00
55932;BME280;41837;55.700;37.984;2023-02-18T00:15:00;100287.91;;;-14.79;100.00
55932;BME280;41837;55.700;37.984;2023-02-18T00:17:28;100287.78;;;-14.80;100.00
55932;BME280;41837;55.700;37.984;2023-02-18T00:19:55;100223.09;;;-15.23;100.00
55932;BME280;41837;55.700;37.984;2023-02-18T00:22:22;100275.78;;;-14.98;100.00
55932;BME280;41837;55.700;37.984;2023-02-18T00:24:49;100264.59;;;-15.15;100.00
55932;BME280;41837;55.700;37.984;2023-02-18T00:27:16;100269.16;;;-15.09;100.00
55932;BME280;41837;55.700;37.984;2023-02-18T00:29:42;100277.66;;;-15.07;100.00
55932;BME280;41837;55.700;37.984;2023-02-18T00:32:08;100271.59;;;-15.23;100.00
55932;BME280;41837;55.700;37.984;2023-02-18T00:34:35;100263.91;;;-15.37;100.00
55932;BME280;41837;55.700;37.984;2023-02-18T00:37:03;100266.97;;;-15.42;100.00
55932;BME280;41837;55.700;37.984;2023-02-18T00:39:30;100264.56;;;-15.40;100.00
55932;BME280;41837;55.700;37.984;2023-02-18T00:41:56;100257.13;;;-15.64;100.00
55932;BME280;41837;55.700;37.984;2023-02-18T00:44:22;100266.84;;;-15.80;100.00
55932;BME280;41837;55.700;37.984;2023-02-18T00:46:49;100262.69;;;-15.68;100.00
55932;BME280;41837;55.700;37.984;2023-02-18T00:49:15;100251.22;;;-15.52;100.00
55932;BME280;41837;55.700;37.984;2023-02-18T00:51:41;100256.03;;;-15.67;100.00
55932;BME280;41837;55.700;37.984;2023-02-18T00:54:07;100243.91;;;-15.61;100.00
55932;BME280;41837;55.700;37.984;2023-02-18T00:56:34;100242.94;;;-15.63;100.00
55932;BME280;41837;55.700;37.984;2023-02-18T00:59:00;100245.16;;;-15.68;100.00
55932;BME280;41837;55.700;37.984;2023-02-18T01:01:26;100234.25;;;-15.68;100.00
55932;BME280;41837;55.700;37.984;2023-02-18T01:03:53;100236.81;;;-15.55;100.00
55932;BME280;41837;55.700;37.984;2023-02-18T01:06:20;100229.41;;;-15.53;100.00
55932;BME280;41837;55.700;37.984;2023-02-18T01:08:47;100234.00;;;-15.60;100.00
55932;BME280;41837;55.700;37.984;2023-02-18T01:11:14;100232.56;;;-15.81;100.00
55932;BME280;41837;55.700;37.984;2023-02-18T01:13:41;100223.31;;;-15.94;100.00
55932;BME280;41837;55.700;37.984;2023-02-18T01:16:07;100218.75;;;-16.00;100.00
55932;BME280;41837;55.700;37.984;2023-02-18T01:18:34;100209.41;;;-16.14;100.00
55932;BME280;41837;55.700;37.984;2023-02-18T01:21:04;100208.22;;;-16.31;100.00
55932;BME280;41837;55.700;37.984;2023-02-18T01:23:36;100200.28;;;-16.37;100.00
55932;BME280;41837;55.700;37.984;2023-02-18T01:26:03;100199.09;;;-16.42;100.00
55932;BME280;41837;55.700;37.984;2023-02-18T01:28:31;100195.38;;;-16.59;100.00
55932;BME280;41837;55.700;37.984;2023-02-18T01:30:58;100196.03;;;-16.50;100.00
55932;BME280;41837;55.700;37.984;2023-02-18T01:33:30;100177.19;;;-16.57;100.00
55932;BME280;41837;55.700;37.984;2023-02-18T01:35:59;100169.28;;;-16.51;100.00
55932;BME280;41837;55.700;37.984;2023-02-18T01:38:26;100167.53;;;-16.40;100.00
55932;BME280;41837;55.700;37.984;2023-02-18T01:40:52;100165.53;;;-16.33;100.00
55932;BME280;41837;55.700;37.984;2023-02-18T01:43:20;100151.31;;;-16.34;100.00
55932;BME280;41837;55.700;37.984;2023-02-18T01:48:42;100148.59;;;-16.37;100.00
55932;BME280;41837;55.700;37.984;2023-02-18T01:51:15;100150.53;;;-16.44;100.00
55932;BME280;41837;55.700;37.984;2023-02-18T01:59:13;100144.78;;;-16.31;100.00
55932;BME280;41837;55.700;37.984;2023-02-18T02:01:42;100143.00;;;-16.21;100.00
55932;BME280;41837;55.700;37.984;2023-02-18T02:04:10;100131.25;;;-16.10;100.00
55932;BME280;41837;55.700;37.984;2023-02-18T02:06:36;100136.75;;;-16.02;100.00
55932;BME280;41837;55.700;37.984;2023-02-18T02:09:04;100136.63;;;-15.92;100.00
55932;BME280;41837;55.700;37.984;2023-02-18T02:17:17;100118.78;;;-15.46;100.00
55932;BME280;41837;55.700;37.984;2023-02-18T02:31:02;100107.75;;;-15.87;100.00
55932;BME280;41837;55.700;37.984;2023-02-18T02:41:57;100101.81;;;-15.50;100.00
55932;BME280;41837;55.700;37.984;2023-02-18T02:44:33;100110.16;;;-15.25;100.00
55932;BME280;41837;55.700;37.984;2023-02-18T02:47:19;100098.19;;;-15.15;100.00
55932;BME280;41837;55.700;37.984;2023-02-18T02:50:19;100102.94;;;-15.20;100.00
55932;BME280;41837;55.700;37.984;2023-02-18T02:52:54;100100.44;;;-15.20;100.00
55932;BME280;41837;55.700;37.984;2023-02-18T02:55:22;100094.19;;;-15.00;100.00
55932;BME280;41837;55.700;37.984;2023-02-18T02:57:53;100084.16;;;-15.00;100.00
55932;BME280;41837;55.700;37.984;2023-02-18T03:06:07;100077.47;;;-14.59;100.00
55932;BME280;41837;55.700;37.984;2023-02-18T03:11:08;100063.63;;;-14.53;100.00
55932;BME280;41837;55.700;37.984;2023-02-18T03:13:52;100057.50;;;-14.71;100.00
55932;BME280;41837;55.700;37.984;2023-02-18T03:17:02;100056.84;;;-14.82;100.00
55932;BME280;41837;55.700;37.984;2023-02-18T03:19:35;100048.75;;;-14.91;100.00
55932;BME280;41837;55.700;37.984;2023-02-18T03:24:53;100028.59;;;-14.93;100.00
55932;BME280;41837;55.700;37.984;2023-02-18T03:27:31;100034.41;;;-14.52;100.00
55932;BME280;41837;55.700;37.984;2023-02-18T03:30:02;100035.75;;;-14.44;100.00
55932;BME280;41837;55.700;37.984;2023-02-18T03:32:38;100036.56;;;-14.30;100.00
55932;BME280;41837;55.700;37.984;2023-02-18T03:35:11;100035.13;;;-13.83;100.00
55932;BME280;41837;55.700;37.984;2023-02-18T03:37:44;100029.09;;;-13.27;100.00
55932;BME280;41837;55.700;37.984;2023-02-18T03:40:14;100024.22;;;-12.95;100.00
55932;BME280;41837;55.700;37.984;2023-02-18T03:42:42;100021.13;;;-12.74;100.00
55932;BME280;41837;55.700;37.984;2023-02-18T03:45:09;100015.97;;;-12.61;100.00
55932;BME280;41837;55.700;37.984;2023-02-18T03:47:36;100016.63;;;-12.48;100.00
55932;BME280;41837;55.700;37.984;2023-02-18T03:50:02;100018.84;;;-12.38;100.00
55932;BME280;41837;55.700;37.984;2023-02-18T03:52:30;100015.59;;;-12.35;100.00
55932;BME280;41837;55.700;37.984;2023-02-18T03:54:56;100009.56;;;-12.23;100.00
55932;BME280;41837;55.700;37.984;2023-02-18T03:57:23;100001.53;;;-12.15;100.00
55932;BME280;41837;55.700;37.984;2023-02-18T03:59:48;100005.41;;;-12.06;100.00
55932;BME280;41837;55.700;37.984;2023-02-18T04:02:15;99993.91;;;-12.01;100.00
55932;BME280;41837;55.700;37.984;2023-02-18T04:04:41;99981.44;;;-11.97;100.00
55932;BME280;41837;55.700;37.984;2023-02-18T04:07:07;99967.19;;;-11.97;100.00
55932;BME280;41837;55.700;37.984;2023-02-18T04:09:33;99972.38;;;-11.94;100.00
55932;BME280;41837;55.700;37.984;2023-02-18T04:11:59;99967.50;;;-11.91;100.00
55932;BME280;41837;55.700;37.984;2023-02-18T04:14:25;99957.41;;;-11.91;100.00
55932;BME280;41837;55.700;37.984;2023-02-18T04:16:51;99966.97;;;-11.84;100.00
55932;BME280;41837;55.700;37.984;2023-02-18T04:19:17;99950.19;;;-11.83;100.00
55932;BME280;41837;55.700;37.984;2023-02-18T04:21:44;99953.50;;;-11.84;100.00
55932;BME280;41837;55.700;37.984;2023-02-18T04:24:10;99952.09;;;-11.79;100.00
55932;BME280;41837;55.700;37.984;2023-02-18T04:26:36;99944.53;;;-11.79;100.00
55932;BME280;41837;55.700;37.984;2023-02-18T04:29:02;99945.53;;;-11.75;100.00
55932;BME280;41837;55.700;37.984;2023-02-18T04:31:28;99940.50;;;-11.75;100.00
55932;BME280;41837;55.700;37.984;2023-02-18T04:33:55;99939.56;;;-11.77;100.00
55932;BME280;41837;55.700;37.984;2023-02-18T04:36:21;99941.34;;;-11.75;100.00
55932;BME280;41837;55.700;37.984;2023-02-18T04:38:47;99929.75;;;-11.71;100.00
55932;BME280;41837;55.700;37.984;2023-02-18T04:41:13;99923.00;;;-11.72;100.00
55932;BME280;41837;55.700;37.984;2023-02-18T04:43:39;99932.66;;;-11.64;100.00
55932;BME280;41837;55.700;37.984;2023-02-18T04:46:05;99928.47;;;-11.63;100.00
55932;BME280;41837;55.700;37.984;2023-02-18T04:48:31;99925.16;;;-11.62;100.00
55932;BME280;41837;55.700;37.984;2023-02-18T04:50:57;99918.63;;;-11.58;100.00
55932;BME280;41837;55.700;37.984;2023-02-18T04:53:24;99910.63;;;-11.50;100.00
55932;BME280;41837;55.700;37.984;2023-02-18T04:55:51;99908.25;;;-11.47;100.00
55932;BME280;41837;55.700;37.984;2023-02-18T04:58:18;99900.00;;;-11.42;100.00
55932;BME280;41837;55.700;37.984;2023-02-18T05:00:45;99886.47;;;-11.45;100.00
55932;BME280;41837;55.700;37.984;2023-02-18T05:03:11;99894.25;;;-11.40;100.00
55932;BME280;41837;55.700;37.984;2023-02-18T05:05:37;99889.41;;;-11.35;100.00
55932;BME280;41837;55.700;37.984;2023-02-18T05:08:03;99891.22;;;-11.33;100.00
55932;BME280;41837;55.700;37.984;2023-02-18T05:10:30;99877.59;;;-11.36;100.00
55932;BME280;41837;55.700;37.984;2023-02-18T05:12:56;99874.41;;;-11.32;100.00
55932;BME280;41837;55.700;37.984;2023-02-18T05:15:22;99876.16;;;-11.31;100.00
55932;BME280;41837;55.700;37.984;2023-02-18T05:17:48;99871.53;;;-11.22;100.00
55932;BME280;41837;55.700;37.984;2023-02-18T05:20:14;99873.13;;;-11.24;100.00
55932;BME280;41837;55.700;37.984;2023-02-18T05:22:40;99878.38;;;-11.19;100.00
55932;BME280;41837;55.700;37.984;2023-02-18T05:25:06;99856.81;;;-11.31;100.00
55932;BME280;41837;55.700;37.984;2023-02-18T05:27:32;99860.72;;;-11.19;100.00
55932;BME280;41837;55.700;37.984;2023-02-18T05:29:58;99855.75;;;-11.18;100.00
55932;BME280;41837;55.700;37.984;2023-02-18T05:32:24;99849.88;;;-11.17;100.00
55932;BME280;41837;55.700;37.984;2023-02-18T05:34:50;99859.66;;;-11.05;100.00
55932;BME280;41837;55.700;37.984;2023-02-18T05:37:17;99854.75;;;-11.02;100.00
55932;BME280;41837;55.700;37.984;2023-02-18T05:39:44;99852.59;;;-10.94;100.00
55932;BME280;41837;55.700;37.984;2023-02-18T05:42:10;99844.19;;;-10.93;100.00
55932;BME280;41837;55.700;37.984;2023-02-18T05:44:36;99837.31;;;-10.97;100.00
55932;BME280;41837;55.700;37.984;2023-02-18T05:47:05;99832.66;;;-10.88;100.00
55932;BME280;41837;55.700;37.984;2023-02-18T05:49:32;99839.38;;;-10.89;100.00
55932;BME280;41837;55.700;37.984;2023-02-18T05:51:59;99834.38;;;-10.87;100.00
55932;BME280;41837;55.700;37.984;2023-02-18T05:54:26;99817.63;;;-10.85;100.00
55932;BME280;41837;55.700;37.984;2023-02-18T05:56:52;99807.41;;;-10.88;100.00
55932;BME280;41837;55.700;37.984;2023-02-18T05:59:19;99814.63;;;-10.76;100.00
55932;BME280;41837;55.700;37.984;2023-02-18T06:01:45;99812.38;;;-10.70;100.00
55932;BME280;41837;55.700;37.984;2023-02-18T06:04:12;99797.78;;;-10.77;100.00
55932;BME280;41837;55.700;37.984;2023-02-18T06:06:40;99803.00;;;-10.73;100.00
55932;BME280;41837;55.700;37.984;2023-02-18T06:09:09;99800.28;;;-10.58;100.00
55932;BME280;41837;55.700;37.984;2023-02-18T06:11:35;99799.16;;;-10.64;100.00
55932;BME280;41837;55.700;37.984;2023-02-18T06:14:02;99798.50;;;-10.60;100.00
55932;BME280;41837;55.700;37.984;2023-02-18T06:16:29;99793.50;;;-10.59;100.00
55932;BME280;41837;55.700;37.984;2023-02-18T06:18:56;99792.81;;;-10.55;100.00
55932;BME280;41837;55.700;37.984;2023-02-18T06:21:23;99781.59;;;-10.61;100.00
55932;BME280;41837;55.700;37.984;2023-02-18T06:23:50;99777.34;;;-10.62;100.00
55932;BME280;41837;55.700;37.984;2023-02-18T06:26:16;99763.97;;;-10.60;100.00
55932;BME280;41837;55.700;37.984;2023-02-18T06:28:42;99763.28;;;-10.56;100.00
55932;BME280;41837;55.700;37.984;2023-02-18T06:31:09;99786.09;;;-10.54;100.00
55932;BME280;41837;55.700;37.984;2023-02-18T06:33:35;99776.47;;;-10.43;100.00
55932;BME280;41837;55.700;37.984;2023-02-18T06:36:05;99772.19;;;-10.44;100.00
55932;BME280;41837;55.700;37.984;2023-02-18T06:38:33;99764.97;;;-10.35;100.00
55932;BME280;41837;55.700;37.984;2023-02-18T06:41:00;99763.59;;;-10.27;100.00
55932;BME280;41837;55.700;37.984;2023-02-18T06:43:26;99756.22;;;-10.22;100.00
55932;BME280;41837;55.700;37.984;2023-02-18T06:45:53;99753.69;;;-10.22;100.00
55932;BME280;41837;55.700;37.984;2023-02-18T06:48:19;99768.53;;;-10.32;100.00
55932;BME280;41837;55.700;37.984;2023-02-18T06:50:47;99747.13;;;-10.17;100.00
55932;BME280;41837;55.700;37.984;2023-02-18T06:53:13;99747.78;;;-10.23;100.00
55932;BME280;41837;55.700;37.984;2023-02-18T06:55:42;99742.66;;;-10.24;100.00
55932;BME280;41837;55.700;37.984;2023-02-18T06:58:13;99743.38;;;-10.27;100.00
55932;BME280;41837;55.700;37.984;2023-02-18T07:00:40;99731.78;;;-10.01;100.00
55932;BME280;41837;55.700;37.984;2023-02-18T07:03:06;99723.72;;;-10.13;100.00
55932;BME280;41837;55.700;37.984;2023-02-18T07:05:33;99727.63;;;-9.99;100.00
55932;BME280;41837;55.700;37.984;2023-02-18T07:08:00;99714.81;;;-10.03;100.00
55932;BME280;41837;55.700;37.984;2023-02-18T07:10:26;99709.69;;;-10.05;100.00
55932;BME280;41837;55.700;37.984;2023-02-18T07:12:52;99706.56;;;-9.77;100.00
55932;BME280;41837;55.700;37.984;2023-02-18T07:15:18;99698.25;;;-9.74;100.00
55932;BME280;41837;55.700;37.984;2023-02-18T07:17:51;99696.56;;;-9.73;100.00
55932;BME280;41837;55.700;37.984;2023-02-18T07:20:20;99702.81;;;-9.64;100.00
55932;BME280;41837;55.700;37.984;2023-02-18T07:22:47;99692.38;;;-9.49;100.00
55932;BME280;41837;55.700;37.984;2023-02-18T07:25:14;99694.34;;;-9.64;100.00
55932;BME280;41837;55.700;37.984;2023-02-18T07:27:40;99681.69;;;-9.64;100.00
55932;BME280;41837;55.700;37.984;2023-02-18T07:30:07;99666.63;;;-9.61;100.00
55932;BME280;41837;55.700;37.984;2023-02-18T07:32:33;99672.00;;;-9.53;100.00
55932;BME280;41837;55.700;37.984;2023-02-18T07:34:59;99675.09;;;-9.61;100.00
55932;BME280;41837;55.700;37.984;2023-02-18T07:37:26;99664.47;;;-9.52;100.00
55932;BME280;41837;55.700;37.984;2023-02-18T07:39:52;99656.03;;;-9.27;100.00
55932;BME280;41837;55.700;37.984;2023-02-18T07:42:18;99644.75;;;-9.36;100.00
55932;BME280;41837;55.700;37.984;2023-02-18T07:44:45;99657.06;;;-9.22;100.00
55932;BME280;41837;55.700;37.984;2023-02-18T07:47:13;99633.16;;;-9.30;100.00
55932;BME280;41837;55.700;37.984;2023-02-18T07:49:40;99640.69;;;-9.07;100.00
55932;BME280;41837;55.700;37.984;2023-02-18T07:52:06;99628.06;;;-9.06;100.00
55932;BME280;41837;55.700;37.984;2023-02-18T07:54:33;99630.38;;;-9.12;100.00
55932;BME280;41837;55.700;37.984;2023-02-18T07:57:00;99619.00;;;-8.99;100.00
55932;BME280;41837;55.700;37.984;2023-02-18T07:59:26;99618.84;;;-9.04;100.00
55932;BME280;41837;55.700;37.984;2023-02-18T08:01:52;99627.63;;;-9.20;100.00
55932;BME280;41837;55.700;37.984;2023-02-18T08:04:18;99613.22;;;-8.95;100.00
55932;BME280;41837;55.700;37.984;2023-02-18T08:06:46;99612.31;;;-9.23;100.00
55932;BME280;41837;55.700;37.984;2023-02-18T08:09:14;99601.28;;;-8.99;100.00
55932;BME280;41837;55.700;37.984;2023-02-18T08:11:40;99604.69;;;-8.71;100.00
55932;BME280;41837;55.700;37.984;2023-02-18T08:14:06;99604.59;;;-8.74;100.00
55932;BME280;41837;55.700;37.984;2023-02-18T08:16:32;99588.47;;;-8.76;100.00
55932;BME280;41837;55.700;37.984;2023-02-18T08:18:59;99594.28;;;-8.80;100.00
55932;BME280;41837;55.700;37.984;2023-02-18T08:21:26;99584.00;;;-8.58;100.00
55932;BME280;41837;55.700;37.984;2023-02-18T08:23:52;99582.50;;;-8.78;100.00
55932;BME280;41837;55.700;37.984;2023-02-18T08:26:19;99563.56;;;-8.90;100.00
55932;BME280;41837;55.700;37.984;2023-02-18T08:28:46;99575.13;;;-8.71;100.00
55932;BME280;41837;55.700;37.984;2023-02-18T08:31:25;99564.63;;;-8.56;100.00
55932;BME280;41837;55.700;37.984;2023-02-18T08:33:53;99569.22;;;-8.71;100.00
55932;BME280;41837;55.700;37.984;2023-02-18T08:36:19;99569.00;;;-8.52;100.00
55932;BME280;41837;55.700;37.984;2023-02-18T08:38:46;99556.31;;;-8.52;100.00
55932;BME280;41837;55.700;37.984;2023-02-18T08:41:13;99567.25;;;-8.53;100.00
55932;BME280;41837;55.700;37.984;2023-02-18T08:43:41;99557.38;;;-8.44;100.00
55932;BME280;41837;55.700;37.984;2023-02-18T08:46:07;99550.16;;;-8.60;100.00
55932;BME280;41837;55.700;37.984;2023-02-18T08:48:33;99541.75;;;-8.57;100.00
55932;BME280;41837;55.700;37.984;2023-02-18T08:51:10;99535.66;;;-8.64;100.00
55932;BME280;41837;55.700;37.984;2023-02-18T08:53:37;99525.84;;;-8.53;100.00
55932;BME280;41837;55.700;37.984;2023-02-18T08:56:06;99526.47;;;-8.30;100.00
55932;BME280;41837;55.700;37.984;2023-02-18T08:58:32;99521.41;;;-8.30;100.00
55932;BME280;41837;55.700;37.984;2023-02-18T09:01:04;99514.69;;;-8.30;100.00
55932;BME280;41837;55.700;37.984;2023-02-18T09:03:30;99512.69;;;-8.10;100.00
55932;BME280;41837;55.700;37.984;2023-02-18T09:05:58;99498.38;;;-8.08;100.00
55932;BME280;41837;55.700;37.984;2023-02-18T09:08:26;99485.75;;;-8.04;100.00
55932;BME280;41837;55.700;37.984;2023-02-18T09:10:57;99488.47;;;-7.98;100.00
55932;BME280;41837;55.700;37.984;2023-02-18T09:13:24;99475.13;;;-7.91;100.00
55932;BME280;41837;55.700;37.984;2023-02-18T09:15:57;99501.44;;;-7.88;100.00
55932;BME280;41837;55.700;37.984;2023-02-18T09:18:23;99481.53;;;-8.06;100.00
55932;BME280;41837;55.700;37.984;2023-02-18T09:20:50;99484.72;;;-8.11;100.00
55932;BME280;41837;55.700;37.984;2023-02-18T09:23:15;99476.59;;;-7.68;100.00
55932;BME280;41837;55.700;37.984;2023-02-18T09:25:42;99476.19;;;-7.83;100.00
55932;BME280;41837;55.700;37.984;2023-02-18T09:28:09;99464.19;;;-7.90;100.00
55932;BME280;41837;55.700;37.984;2023-02-18T09:30:35;99455.81;;;-7.86;100.00
55932;BME280;41837;55.700;37.984;2023-02-18T09:33:04;99467.16;;;-8.05;100.00
55932;BME280;41837;55.700;37.984;2023-02-18T09:35:30;99457.69;;;-7.80;100.00
55932;BME280;41837;55.700;37.984;2023-02-18T09:37:57;99452.66;;;-7.77;100.00
55932;BME280;41837;55.700;37.984;2023-02-18T09:40:28;99450.06;;;-7.80;100.00
55932;BME280;41837;55.700;37.984;2023-02-18T09:42:58;99452.09;;;-7.67;100.00
55932;BME280;41837;55.700;37.984;2023-02-18T09:45:24;99437.75;;;-7.65;100.00
55932;BME280;41837;55.700;37.984;2023-02-18T09:47:51;99435.31;;;-7.60;100.00
55932;BME280;41837;55.700;37.984;2023-02-18T09:50:21;99434.94;;;-7.41;100.00
55932;BME280;41837;55.700;37.984;2023-02-18T09:52:48;99424.63;;;-7.47;100.00
55932;BME280;41837;55.700;37.984;2023-02-18T09:58:18;99409.53;;;-7.06;100.00
55932;BME280;41837;55.700;37.984;2023-02-18T10:00:43;99393.50;;;-7.40;100.00
55932;BME280;41837;55.700;37.984;2023-02-18T10:03:29;99387.31;;;-7.13;100.00
55932;BME280;41837;55.700;37.984;2023-02-18T10:08:35;99377.06;;;-6.78;100.00
55932;BME280;41837;55.700;37.984;2023-02-18T10:11:02;99382.25;;;-6.73;100.00
55932;BME280;41837;55.700;37.984;2023-02-18T10:13:32;99369.69;;;-6.66;100.00
55932;BME280;41837;55.700;37.984;2023-02-18T10:16:00;99371.03;;;-6.41;100.00
55932;BME280;41837;55.700;37.984;2023-02-18T10:18:40;99364.13;;;-6.90;100.00
55932;BME280;41837;55.700;37.984;2023-02-18T10:21:12;99368.13;;;-7.00;100.00
55932;BME280;41837;55.700;37.984;2023-02-18T10:23:41;99375.47;;;-7.14;100.00
55932;BME280;41837;55.700;37.984;2023-02-18T10:26:17;99347.38;;;-7.20;100.00
55932;BME280;41837;55.700;37.984;2023-02-18T10:28:44;99337.59;;;-7.02;100.00
55932;BME280;41837;55.700;37.984;2023-02-18T10:31:16;99337.66;;;-7.00;100.00
55932;BME280;41837;55.700;37.984;2023-02-18T10:33:57;99341.13;;;-6.95;100.00
55932;BME280;41837;55.700;37.984;2023-02-18T10:36:44;99342.16;;;-7.28;100.00
55932;BME280;41837;55.700;37.984;2023-02-18T10:39:27;99316.16;;;-7.15;100.00
55932;BME280;41837;55.700;37.984;2023-02-18T10:42:14;99315.53;;;-7.06;100.00
55932;BME280;41837;55.700;37.984;2023-02-18T10:45:02;99318.13;;;-7.01;100.00
55932;BME280;41837;55.700;37.984;2023-02-18T10:50:34;99299.16;;;-6.76;100.00
55932;BME280;41837;55.700;37.984;2023-02-18T10:53:12;99300.56;;;-6.90;100.00
55932;BME280;41837;55.700;37.984;2023-02-18T10:55:45;99298.38;;;-7.15;100.00
55932;BME280;41837;55.700;37.984;2023-02-18T10:58:41;99288.63;;;-6.95;100.00
55932;BME280;41837;55.700;37.984;2023-02-18T11:01:16;99298.19;;;-6.81;100.00
55932;BME280;41837;55.700;37.984;2023-02-18T11:03:47;99286.78;;;-7.02;100.00
55932;BME280;41837;55.700;37.984;2023-02-18T11:09:05;99289.72;;;-6.82;100.00
55932;BME280;41837;55.700;37.984;2023-02-18T11:11:38;99278.44;;;-6.96;100.00
55932;BME280;41837;55.700;37.984;2023-02-18T11:14:07;99273.91;;;-7.11;100.00
55932;BME280;41837;55.700;37.984;2023-02-18T11:16:45;99273.53;;;-6.87;100.00
55932;BME280;41837;55.700;37.984;2023-02-18T11:19:35;99274.88;;;-7.04;100.00
55932;BME280;41837;55.700;37.984;2023-02-18T11:22:19;99271.72;;;-6.93;100.00
55932;BME280;41837;55.700;37.984;2023-02-18T11:24:46;99271.06;;;-6.82;100.00
55932;BME280;41837;55.700;37.984;2023-02-18T11:27:37;99235.59;;;-6.76;100.00
55932;BME280;41837;55.700;37.984;2023-02-18T11:30:21;99252.16;;;-6.97;100.00
55932;BME280;41837;55.700;37.984;2023-02-18T11:33:01;99232.00;;;-6.87;100.00
55932;BME280;41837;55.700;37.984;2023-02-18T11:35:31;99248.59;;;-7.06;100.00
55932;BME280;41837;55.700;37.984;2023-02-18T11:37:58;99239.34;;;-7.03;100.00
55932;BME280;41837;55.700;37.984;2023-02-18T11:40:34;99258.47;;;-7.20;100.00
55932;BME280;41837;55.700;37.984;2023-02-18T11:43:13;99249.91;;;-7.25;100.00
55932;BME280;41837;55.700;37.984;2023-02-18T11:45:41;99250.28;;;-7.07;100.00
55932;BME280;41837;55.700;37.984;2023-02-18T11:48:15;99227.19;;;-7.19;100.00
55932;BME280;41837;55.700;37.984;2023-02-18T11:50:43;99237.59;;;-7.05;100.00
55932;BME280;41837;55.700;37.984;2023-02-18T11:53:49;99216.66;;;-6.94;100.00
55932;BME280;41837;55.700;37.984;2023-02-18T11:56:18;99225.22;;;-6.88;100.00
55932;BME280;41837;55.700;37.984;2023-02-18T11:58:47;99210.97;;;-6.80;100.00
55932;BME280;41837;55.700;37.984;2023-02-18T12:01:23;99211.28;;;-6.63;100.00
55932;BME280;41837;55.700;37.984;2023-02-18T12:03:56;99205.44;;;-6.58;100.00
55932;BME280;41837;55.700;37.984;2023-02-18T12:06:31;99215.28;;;-6.76;100.00
55932;BME280;41837;55.700;37.984;2023-02-18T12:09:16;99206.94;;;-6.67;100.00
55932;BME280;41837;55.700;37.984;2023-02-18T12:11:47;99199.22;;;-6.73;100.00
55932;BME280;41837;55.700;37.984;2023-02-18T12:14:20;99198.97;;;-6.87;100.00
55932;BME280;41837;55.700;37.984;2023-02-18T12:17:11;99194.97;;;-6.75;100.00
55932;BME280;41837;55.700;37.984;2023-02-18T12:22:45;99189.09;;;-6.72;100.00
55932;BME280;41837;55.700;37.984;2023-02-18T12:28:22;99186.25;;;-6.87;100.00
55932;BME280;41837;55.700;37.984;2023-02-18T12:39:10;99181.50;;;-7.18;100.00
55932;BME280;41837;55.700;37.984;2023-02-18T12:51:17;99176.31;;;-7.22;100.00
55932;BME280;41837;55.700;37.984;2023-02-18T12:53:58;99166.97;;;-7.23;100.00
55932;BME280;41837;55.700;37.984;2023-02-18T13:10:42;99149.34;;;-7.16;100.00
55932;BME280;41837;55.700;37.984;2023-02-18T13:13:46;99138.28;;;-7.19;100.00
55932;BME280;41837;55.700;37.984;2023-02-18T13:16:18;99129.75;;;-7.21;100.00
55932;BME280;41837;55.700;37.984;2023-02-18T13:18:57;99145.78;;;-7.25;100.00
55932;BME280;41837;55.700;37.984;2023-02-18T13:21:25;99146.44;;;-7.36;100.00
55932;BME280;41837;55.700;37.984;2023-02-18T13:24:00;99136.34;;;-7.33;100.00
55932;BME280;41837;55.700;37.984;2023-02-18T13:26:28;99125.34;;;-7.32;100.00
55932;BME280;41837;55.700;37.984;2023-02-18T13:40:42;99108.88;;;-7.52;100.00
55932;BME280;41837;55.700;37.984;2023-02-18T13:48:28;99104.81;;;-7.44;100.00
55932;BME280;41837;55.700;37.984;2023-02-18T13:51:03;99103.06;;;-7.48;100.00
55932;BME280;41837;55.700;37.984;2023-02-18T13:53:34;99080.06;;;-7.54;100.00
55932;BME280;41837;55.700;37.984;2023-02-18T13:56:09;99088.69;;;-7.46;100.00
55932;BME280;41837;55.700;37.984;2023-02-18T13:58:54;99088.59;;;-7.51;100.00
55932;BME280;41837;55.700;37.984;2023-02-18T14:01:37;99090.41;;;-7.45;100.00
55932;BME280;41837;55.700;37.984;2023-02-18T14:09:52;99083.59;;;-7.47;100.00
55932;BME280;41837;55.700;37.984;2023-02-18T14:12:39;99074.28;;;-7.47;100.00
55932;BME280;41837;55.700;37.984;2023-02-18T14:20:47;99068.28;;;-7.51;100.00
55932;BME280;41837;55.700;37.984;2023-02-18T14:26:00;99063.94;;;-7.58;100.00
55932;BME280;41837;55.700;37.984;2023-02-18T14:34:15;99063.06;;;-7.60;100.00
55932;BME280;41837;55.700;37.984;2023-02-18T14:39:50;99058.63;;;-7.70;100.00
55932;BME280;41837;55.700;37.984;2023-02-18T14:48:46;99043.13;;;-7.85;100.00
55932;BME280;41837;55.700;37.984;2023-02-18T14:51:21;99036.28;;;-7.88;100.00
55932;BME280;41837;55.700;37.984;2023-02-18T14:53:49;99041.16;;;-7.99;100.00
55932;BME280;41837;55.700;37.984;2023-02-18T14:56:18;99047.91;;;-7.99;100.00
55932;BME280;41837;55.700;37.984;2023-02-18T14:58:48;99041.03;;;-8.05;100.00
55932;BME280;41837;55.700;37.984;2023-02-18T15:01:18;99042.81;;;-8.01;100.00
55932;BME280;41837;55.700;37.984;2023-02-18T15:03:47;99044.41;;;-8.06;100.00
55932;BME280;41837;55.700;37.984;2023-02-18T15:06:34;99038.50;;;-8.05;100.00